createdAt,value
2023-05-23T08:45:33.242Z,99780.34
2023-05-23T08:48:39.293Z,99780.49
2023-05-23T08:51:45.866Z,99771.11
2023-05-23T08:54:53.277Z,99768.80
2023-05-23T08:58:01.852Z,99764.02
2023-05-23T09:01:28.242Z,99762.27
2023-05-23T09:04:35.800Z,99754.88
2023-05-23T09:07:48.247Z,99755.73
2023-05-23T09:10:56.623Z,99758.80
2023-05-23T09:14:03.533Z,99755.23
2023-05-23T09:17:13.485Z,99750.97
2023-05-23T09:20:28.465Z,99745.94
2023-05-23T09:23:37.107Z,99757.09
2023-05-23T09:26:41.748Z,99761.62
2023-05-23T09:29:54.266Z,99755.96
2023-05-23T09:33:08.944Z,99752.53
2023-05-23T09:36:08.160Z,99754.44
2023-05-23T09:39:19.011Z,99746.71
2023-05-23T09:42:19.424Z,99733.86
2023-05-23T09:45:25.955Z,99748.78
2023-05-23T09:48:32.596Z,99734.25
2023-05-23T09:51:38.927Z,99738.81
2023-05-23T09:54:45.389Z,99729.08
2023-05-23T09:57:53.269Z,99733.06
2023-05-23T10:01:01.354Z,99726.93
2023-05-23T10:04:29.784Z,99724.92
2023-05-23T10:07:35.107Z,99721.46
2023-05-23T10:10:40.887Z,99726.51
2023-05-23T10:13:47.372Z,99733.36
2023-05-23T10:17:18.424Z,99732.73
2023-05-23T10:20:30.892Z,99724.44
2023-05-23T10:23:36.839Z,99724.49
2023-05-23T10:26:42.698Z,99725.83
2023-05-23T10:29:48.704Z,99732.02
2023-05-23T10:32:55.528Z,99727.29
2023-05-23T10:36:07.284Z,99721.10
2023-05-23T10:39:20.594Z,99723.98
2023-05-23T10:42:39.554Z,99728.57
2023-05-23T10:45:45.968Z,99725.66
2023-05-23T10:48:56.629Z,99722.93
2023-05-23T10:52:05.974Z,99713.98
2023-05-23T10:55:11.079Z,99715.88
2023-05-23T10:58:33.009Z,99714.73
2023-05-23T11:01:39.695Z,99725.80
2023-05-23T11:04:46.053Z,99725.08
2023-05-23T11:07:52.542Z,99723.30
2023-05-23T11:11:18.745Z,99722.73
2023-05-23T11:14:25.900Z,99717.56
2023-05-23T11:17:30.912Z,99722.66
2023-05-23T11:20:42.877Z,99715.88
2023-05-23T11:23:57.085Z,99717.58
2023-05-23T11:27:10.949Z,99713.03
2023-05-23T11:30:20.796Z,99718.41
2023-05-23T11:33:27.947Z,99711.81
2023-05-23T11:36:35.383Z,99714.84
2023-05-23T11:39:40.865Z,99708.13
2023-05-23T11:42:46.452Z,99713.69
2023-05-23T11:45:56.350Z,99708.09
2023-05-23T11:49:02.761Z,99710.56
2023-05-23T11:52:08.998Z,99714.00
2023-05-23T11:55:16.848Z,99713.86
2023-05-23T11:58:23.617Z,99712.28
2023-05-23T12:01:30.624Z,99704.08
2023-05-23T12:04:35.980Z,99700.70
2023-05-23T12:07:40.800Z,99703.14
2023-05-23T12:10:47.758Z,99701.67
2023-05-23T12:13:54.600Z,99709.91
2023-05-23T12:16:59.398Z,99693.38
2023-05-23T12:20:06.941Z,99695.24
2023-05-23T12:23:13.732Z,99699.80
2023-05-23T12:26:20.892Z,99698.13
2023-05-23T12:29:26.611Z,99707.82
2023-05-23T12:32:31.349Z,99701.41
2023-05-23T12:35:39.092Z,99702.04
2023-05-23T12:38:51.601Z,99696.70
2023-05-23T12:41:58.975Z,99693.94
2023-05-23T12:45:07.415Z,99685.92
2023-05-23T12:48:15.841Z,99678.31
2023-05-23T12:51:20.885Z,99678.27
2023-05-23T12:54:27.572Z,99671.67
2023-05-23T12:57:33.638Z,99679.42
2023-05-23T13:00:39.747Z,99683.89
2023-05-23T13:03:39.282Z,99685.31
2023-05-23T13:06:31.911Z,99688.00
2023-05-23T13:09:38.113Z,99697.11
2023-05-23T13:12:46.334Z,99689.16
2023-05-23T13:15:52.233Z,99681.33
2023-05-23T13:18:59.751Z,99682.89
2023-05-23T13:22:07.287Z,99673.53
2023-05-23T13:25:14.046Z,99680.40
2023-05-23T13:28:20.623Z,99684.55
2023-05-23T13:31:19.916Z,99685.08
2023-05-23T13:34:26.033Z,99680.31
2023-05-23T13:37:32.132Z,99675.83
2023-05-23T13:40:38.954Z,99690.59
2023-05-23T13:43:46.764Z,99689.78
2023-05-23T13:46:54.141Z,99695.18
2023-05-23T13:49:59.750Z,99697.40
2023-05-23T13:53:06.149Z,99692.27
2023-05-23T13:56:12.274Z,99697.38
2023-05-23T13:59:17.230Z,99689.97
2023-05-23T14:02:22.178Z,99691.45
2023-05-23T14:05:28.095Z,99689.78
2023-05-23T14:08:33.606Z,99686.64
2023-05-23T14:11:38.553Z,99691.50
2023-05-23T14:14:43.769Z,99691.52
2023-05-23T14:17:50.801Z,99688.70
2023-05-23T14:20:59.154Z,99683.91
2023-05-23T14:24:06.336Z,99689.11
2023-05-23T14:27:13.461Z,99683.16
2023-05-23T14:30:20.729Z,99690.10
2023-05-23T14:33:26.372Z,99688.87
2023-05-23T14:36:31.252Z,99684.34
2023-05-23T14:39:36.638Z,99676.69
2023-05-23T14:42:42.541Z,99673.95
2023-05-23T14:45:48.136Z,99667.98
2023-05-23T14:48:54.260Z,99676.47
2023-05-23T14:52:00.133Z,99674.91
2023-05-23T14:55:06.151Z,99666.02
2023-05-23T14:58:12.741Z,99674.15
2023-05-23T15:01:19.976Z,99670.23
2023-05-23T15:04:27.419Z,99672.70
2023-05-23T15:07:34.220Z,99668.25
2023-05-23T15:10:39.799Z,99661.27
2023-05-23T15:13:46.431Z,99666.60
2023-05-23T15:16:55.286Z,99666.16
2023-05-23T15:20:04.599Z,99667.62
2023-05-23T15:23:10.781Z,99667.39
2023-05-23T15:26:15.658Z,99659.58
2023-05-23T15:29:24.744Z,99660.03
2023-05-23T15:32:24.538Z,99655.89
2023-05-23T15:35:19.491Z,99661.12
2023-05-23T15:38:20.199Z,99669.72
2023-05-23T15:41:26.626Z,99668.00
2023-05-23T15:44:32.240Z,99662.64
2023-05-23T15:47:37.598Z,99660.30
2023-05-23T15:50:44.934Z,99658.67
2023-05-23T15:56:59.586Z,99653.54
2023-05-23T16:00:06.421Z,99655.01
2023-05-23T16:03:12.603Z,99654.90
2023-05-23T16:06:19.007Z,99655.22
2023-05-23T16:09:23.653Z,99660.08
2023-05-23T16:12:29.109Z,99659.81
2023-05-23T16:15:35.221Z,99663.04
2023-05-23T16:18:41.838Z,99661.12
2023-05-23T16:21:48.095Z,99661.00
2023-05-23T16:24:55.386Z,99658.20
2023-05-23T16:28:02.477Z,99658.72
2023-05-23T16:31:08.616Z,99660.95
2023-05-23T16:34:13.672Z,99662.52
2023-05-23T16:37:19.271Z,99668.48
2023-05-23T16:40:25.643Z,99674.66
2023-05-23T16:43:34.145Z,99678.38
2023-05-23T16:46:39.718Z,99680.61
2023-05-23T16:49:47.012Z,99677.67
2023-05-23T16:52:54.289Z,99677.11
2023-05-23T16:56:00.874Z,99680.05
2023-05-23T16:59:07.475Z,99690.95
2023-05-23T17:02:13.496Z,99687.02
2023-05-23T17:05:19.580Z,99687.47
2023-05-23T17:08:25.578Z,99691.34
2023-05-23T17:11:32.549Z,99691.92
2023-05-23T17:14:38.910Z,99686.38
2023-05-23T17:17:43.707Z,99680.53
2023-05-23T17:20:50.356Z,99680.78
2023-05-23T17:23:55.993Z,99683.58
2023-05-23T17:27:01.405Z,99682.81
2023-05-23T17:30:06.837Z,99689.48
2023-05-23T17:33:12.220Z,99697.37
2023-05-23T17:36:18.834Z,99700.45
2023-05-23T17:39:23.795Z,99701.86
2023-05-23T17:42:29.980Z,99715.31
2023-05-23T17:45:35.378Z,99704.44
2023-05-23T17:48:47.537Z,99711.97
2023-05-23T17:51:49.116Z,99716.45
2023-05-23T17:54:55.068Z,99718.39
2023-05-23T17:58:01.405Z,99723.70
2023-05-23T18:01:08.081Z,99727.33
2023-05-23T18:04:14.038Z,99728.45
2023-05-23T18:07:20.061Z,99738.23
2023-05-23T18:10:26.860Z,99747.42
2023-05-23T18:13:32.796Z,99752.92
2023-05-23T18:16:38.680Z,99752.72
2023-05-23T18:19:43.572Z,99748.25
2023-05-23T18:22:50.255Z,99757.46
2023-05-23T18:25:56.161Z,99757.17
2023-05-23T18:29:02.469Z,99751.89
2023-05-23T18:32:00.864Z,99754.41
2023-05-23T18:34:53.699Z,99751.02
2023-05-23T18:37:58.798Z,99748.48
2023-05-23T18:41:05.474Z,99755.72
2023-05-23T18:44:05.139Z,99758.22
2023-05-23T18:46:51.076Z,99759.28
2023-05-23T18:49:42.969Z,99754.23
2023-05-23T18:52:34.751Z,99751.43
2023-05-23T18:55:39.387Z,99758.10
2023-05-23T18:58:46.890Z,99758.16
2023-05-23T19:01:52.672Z,99749.47
2023-05-23T19:05:00.190Z,99750.61
2023-05-23T19:08:06.243Z,99752.55
2023-05-23T19:11:12.712Z,99746.20
2023-05-23T19:14:20.775Z,99742.01
2023-05-23T19:17:26.747Z,99744.86
2023-05-23T19:20:32.042Z,99738.21
2023-05-23T19:23:38.114Z,99744.63
2023-05-23T19:26:37.482Z,99741.81
2023-05-23T19:29:43.471Z,99743.52
2023-05-23T19:32:48.668Z,99739.91
2023-05-23T19:35:54.228Z,99749.11
2023-05-23T19:39:02.117Z,99739.89
2023-05-23T19:42:08.249Z,99736.28
2023-05-23T19:45:14.584Z,99734.03
2023-05-23T19:48:20.376Z,99731.23
2023-05-23T19:51:25.139Z,99730.96
2023-05-23T19:54:30.903Z,99730.40
2023-05-23T19:57:35.618Z,99728.42
2023-05-23T20:00:42.342Z,99722.86
2023-05-23T20:03:47.821Z,99725.10
2023-05-23T20:06:54.795Z,99717.56
2023-05-23T20:09:59.597Z,99720.34
2023-05-23T20:13:05.728Z,99725.38
2023-05-23T20:16:10.854Z,99715.87
2023-05-23T20:19:17.685Z,99722.86
2023-05-23T20:22:24.250Z,99722.28
2023-05-23T20:25:30.841Z,99733.73
2023-05-23T20:28:36.816Z,99730.66
2023-05-23T20:31:43.498Z,99730.10
2023-05-23T20:34:42.430Z,99742.13
2023-05-23T20:37:50.673Z,99743.02
2023-05-23T20:40:59.437Z,99741.61
2023-05-23T20:44:07.067Z,99743.20
2023-05-23T20:47:13.671Z,99743.19
2023-05-23T20:50:22.002Z,99747.09
2023-05-23T20:53:27.465Z,99749.09
2023-05-23T20:56:34.315Z,99737.41
2023-05-23T20:59:39.128Z,99738.52
2023-05-23T21:02:44.097Z,99741.58
2023-05-23T21:05:49.163Z,99739.91
2023-05-23T21:08:55.766Z,99732.38
2023-05-23T21:12:01.821Z,99732.08
2023-05-23T21:15:07.327Z,99725.35
2023-05-23T21:18:12.179Z,99716.94
2023-05-23T21:21:17.944Z,99721.48
2023-05-23T21:24:23.607Z,99718.89
2023-05-23T21:27:23.982Z,99714.13
2023-05-23T21:30:28.816Z,99718.33
2023-05-23T21:33:34.499Z,99712.50
2023-05-23T21:36:40.240Z,99728.70
2023-05-23T21:39:51.917Z,99731.22
2023-05-23T21:42:54.782Z,99719.48
2023-05-23T21:46:01.337Z,99726.47
2023-05-23T21:48:59.992Z,99722.03
2023-05-23T21:51:52.887Z,99726.77
2023-05-23T21:54:58.380Z,99726.78
2023-05-23T21:58:03.809Z,99725.09
2023-05-23T22:01:09.626Z,99731.26
2023-05-23T22:04:15.528Z,99723.71
2023-05-23T22:07:20.089Z,99734.31
2023-05-23T22:10:25.838Z,99728.99
2023-05-23T22:13:31.376Z,99718.96
2023-05-23T22:16:39.910Z,99724.55
2023-05-23T22:19:46.990Z,99722.59
2023-05-23T22:22:52.748Z,99726.13
2023-05-23T22:25:59.043Z,99726.73
2023-05-23T22:29:04.510Z,99731.16
2023-05-23T22:32:11.099Z,99739.50
2023-05-23T22:35:15.888Z,99747.58
2023-05-23T22:38:21.944Z,99747.58
2023-05-23T22:41:27.249Z,99745.38
2023-05-23T22:44:33.743Z,99743.70
2023-05-23T22:47:39.080Z,99739.67
2023-05-23T22:50:46.584Z,99738.24
2023-05-23T22:53:52.500Z,99739.17
2023-05-23T22:56:58.488Z,99737.81
2023-05-23T23:00:04.216Z,99738.95
2023-05-23T23:03:10.442Z,99737.52
2023-05-23T23:06:17.197Z,99738.92
2023-05-23T23:09:24.805Z,99740.34
2023-05-23T23:12:31.074Z,99746.94
2023-05-23T23:15:37.054Z,99750.84
2023-05-23T23:18:42.998Z,99750.83
2023-05-23T23:21:49.420Z,99754.52
2023-05-23T23:24:55.351Z,99757.81
2023-05-23T23:28:01.267Z,99759.95
2023-05-23T23:31:07.079Z,99761.53
2023-05-23T23:34:12.612Z,99760.39
2023-05-23T23:37:17.489Z,99757.27
2023-05-23T23:40:24.216Z,99755.63
2023-05-23T23:43:30.563Z,99761.25
2023-05-23T23:46:36.242Z,99756.85
2023-05-23T23:49:40.624Z,99757.02
2023-05-23T23:52:46.642Z,99758.72
2023-05-23T23:55:53.546Z,99764.91
2023-05-23T23:58:59.674Z,99763.84
